Patcona II — WDC2170 — position and weather

sailwx.info

Track history (hours):
 
Tides and Currents Weather Stations Pressure Air Temp Water Temp Dewpoint Dewpoint Depression Visibility Wind Speed Wind Dir Waves Ship Positions

Patcona II

Owner: Connolly-Pacific Co, long beach, CA. More information available from US FCC via Universal Licensing System and Coast Guard Vessel Documentation Center.

Last reported at 2015-Feb-01 05:33 UTC. Time now 2015-Feb-01 05:43 UTC.
Position N 33°46' W 118°13'.

; draft 9 m.

Type: Towing. MMSI: 366988960.

Date/timePositionNaut miles runAvg speedWind from/ knotsBaromVisibWave heightAir tempDewpointWater temp
2015-Feb-01 05:33N 33°46' W 118°13'0 0.0
2015-Feb-01 04:33N 33°46' W 118°13'0 0.0
2015-Feb-01 03:33N 33°46' W 118°13'0 0.0
2015-Feb-01 02:32N 33°46' W 118°13'0 0.0
2015-Feb-01 01:24N 33°46' W 118°13'0 0.0
2015-Feb-01 00:33N 33°46' W 118°13'0 0.0
2015-Jan-31 23:33N 33°46' W 118°13'0 0.0
2015-Jan-31 22:33N 33°46' W 118°13'0 0.0
2015-Jan-31 21:33N 33°46' W 118°13'0 0.0
2015-Jan-31 20:32N 33°46' W 118°13'0 0.0
2015-Jan-31 19:33N 33°46' W 118°13'0 0.0
2015-Jan-31 18:33N 33°46' W 118°13'0 0.0
2015-Jan-31 17:29N 33°46' W 118°13'0 0.0
2015-Jan-31 16:32N 33°46' W 118°13'0 0.0
2015-Jan-31 15:31N 33°46' W 118°13'0 0.0
2015-Jan-31 14:31N 33°46' W 118°13'0 0.0
2015-Jan-31 13:32N 33°46' W 118°13'0 0.0
2015-Jan-31 12:33N 33°46' W 118°13'0 0.0
2015-Jan-31 11:33N 33°46' W 118°13'0 0.0
2015-Jan-31 10:33N 33°46' W 118°13'0 0.0
2015-Jan-31 09:33N 33°46' W 118°13'123014236.8
2015-Jan-31 09:28N 29°21' W 094°44'12301354.8
2015-Jan-31 08:33N 33°46' W 118°13'0 0.0
2015-Jan-31 07:33N 33°46' W 118°13'0 0.0
2015-Jan-31 06:33N 33°46' W 118°13'0 0.0
2015-Jan-31 05:33N 33°46' W 118°13'0 0.0
2015-Jan-31 04:33N 33°46' W 118°13'0 0.0
2015-Jan-31 03:31N 33°46' W 118°13'0 0.0
2015-Jan-31 02:32N 33°46' W 118°13'7 3.4
2015-Jan-31 00:29N 33°39' W 118°14'14 4.9
2015-Jan-30 21:33N 33°25' W 118°16'5 4.6
2015-Jan-30 20:32N 33°20' W 118°17'1 1.2
2015-Jan-30 19:33N 33°19' W 118°18'0 0.2
2015-Jan-30 18:33N 33°19' W 118°18'0 0.2
2015-Jan-30 17:33N 33°19' W 118°18'12238337.6
2015-Jan-30 17:24N 29°22' W 094°53'12231433.0
2015-Jan-30 16:33N 33°19' W 118°18'0 0.2
2015-Jan-30 15:32N 33°19' W 118°18'1 0.7
2015-Jan-30 14:31N 33°20' W 118°18'25 6.0
2015-Jan-30 10:18N 33°45' W 118°13'1 1.7
2015-Jan-30 09:33N 33°46' W 118°13'0 0.0
2015-Jan-30 08:33N 33°46' W 118°13'0 0.0
2015-Jan-30 07:33N 33°46' W 118°13'0 0.0
2015-Jan-30 06:33N 33°46' W 118°13'0 0.0
2015-Jan-30 05:33N 33°46' W 118°13'0 0.0
2015-Jan-30 04:33N 33°46' W 118°13'0 0.0
2015-Jan-30 03:33N 33°46' W 118°13'0 0.0
2015-Jan-30 02:33N 33°46' W 118°13'0 0.0
2015-Jan-30 01:33N 33°46' W 118°13'0 0.0
2015-Jan-30 00:33N 33°46' W 118°13'0 0.0
2015-Jan-29 23:33N 33°46' W 118°13'4 2.4
2015-Jan-29 22:07N 33°44' W 118°16'0 0.0
2015-Jan-29 21:30N 33°44' W 118°16'4 3.7
2015-Jan-29 20:33N 33°46' W 118°13'0 0.0
2015-Jan-29 19:33N 33°46' W 118°13'1222600.5
2015-Jan-29 17:31N 29°22' W 094°53'1222879670.1
2015-Jan-29 17:31N 33°46' W 118°13'0 0.0
2015-Jan-29 16:33N 33°46' W 118°13'0 0.0
2015-Jan-29 15:33N 33°46' W 118°13'12229087.5
2015-Jan-29 15:25N 29°22' W 094°53'12221394.5
2015-Jan-29 14:33N 33°46' W 118°13'12226142.9
2015-Jan-29 14:21N 29°22' W 094°53'12221546.5
2015-Jan-29 13:34N 33°46' W 118°13'0 0.0
2015-Jan-29 12:33N 33°46' W 118°13'0 0.0
2015-Jan-29 11:33N 33°46' W 118°13'0 0.0
2015-Jan-29 10:33N 33°46' W 118°13'0 0.0
2015-Jan-29 09:33N 33°46' W 118°13'0 0.0
2015-Jan-29 08:34N 33°46' W 118°13'0 0.0
2015-Jan-29 07:33N 33°46' W 118°13'12252764.3
2015-Jan-29 07:07N 29°22' W 094°50'12252187.0
2015-Jan-29 06:33N 33°46' W 118°13'12288786.9
2015-Jan-29 06:25N 29°19' W 094°47'12281423.4
2015-Jan-29 05:33N 33°46' W 118°13'12283237.8
2015-Jan-29 05:10N 29°19' W 094°47'12281967.7
2015-Jan-29 04:33N 33°46' W 118°13'1228315680.8
2015-Jan-29 04:33N 29°19' W 094°47'12281225.6
2015-Jan-29 03:33N 33°46' W 118°13'122869055.2
2015-Jan-29 03:32N 29°19' W 094°47'12281268.2
2015-Jan-29 02:34N 33°46' W 118°13'12272460.4
2015-Jan-29 02:04N 29°21' W 094°47'12272433.3
2015-Jan-29 01:33N 33°46' W 118°13'122458741.1
2015-Jan-29 01:32N 29°25' W 094°50'7 7.2
2015-Jan-29 00:33N 29°31' W 094°53'8 7.7
2015-Jan-28 23:33N 29°38' W 094°58'12131455482.1
2015-Jan-28 23:33N 33°46' W 118°13'12071208.3
2015-Jan-28 22:33N 29°44' W 095°02'120741791.6
2015-Jan-28 22:32N 33°46' W 118°13'12011237.0
2015-Jan-28 21:33N 29°44' W 095°09'12014947.8
2015-Jan-28 21:19N 33°46' W 118°13'11981584.0
2015-Jan-28 20:33N 29°43' W 095°14'11987472.7
2015-Jan-28 20:24N 33°46' W 118°13'11981398.0
2015-Jan-28 19:32N 29°43' W 095°14'11985771.8
2015-Jan-28 19:20N 33°46' W 118°13'11981512.3
2015-Jan-28 18:33N 29°43' W 095°14'11983959.2
2015-Jan-28 18:14N 33°46' W 118°13'11981713.7
2015-Jan-28 17:32N 29°43' W 095°14'11986212.6
2015-Jan-28 17:21N 33°46' W 118°13'11981483.7
2015-Jan-28 16:32N 29°43' W 095°14'119821032.0
2015-Jan-28 16:29N 33°46' W 118°13'0 0.0
2015-Jan-28 15:34N 33°46' W 118°13'119927312.1
2015-Jan-28 15:31N 29°44' W 095°13'1 1.2
2015-Jan-28 14:33N 29°43' W 095°14'11981166.9
2015-Jan-28 13:32N 33°46' W 118°13'119853894.4
2015-Jan-28 13:31N 29°43' W 095°14'11981260.3
2015-Jan-28 12:34N 33°46' W 118°13'1198862310.5
2015-Jan-28 12:33N 29°43' W 095°14'0 0.0
2015-Jan-28 11:33N 29°43' W 095°14'1198187458.8
2015-Jan-28 11:33N 33°46' W 118°13'0 0.0
2015-Jan-28 10:34N 33°46' W 118°13'11982155776.2
2015-Jan-28 10:33N 29°43' W 095°14'0 0.0
2015-Jan-28 09:33N 29°43' W 095°14'11981437184.1
2015-Jan-28 09:33N 33°46' W 118°13'0 0.0
2015-Jan-28 08:34N 33°46' W 118°13'1197718484.8
2015-Jan-28 08:33N 29°43' W 095°14'11971185.9
2015-Jan-28 07:33N 33°46' W 118°13'119639498.7
2015-Jan-28 07:31N 29°44' W 095°16'11961223.1
2015-Jan-28 06:32N 33°46' W 118°13'119653816.9
2015-Jan-28 06:31N 29°44' W 095°16'0 0.0
2015-Jan-28 05:31N 29°44' W 095°16'11961248.3
2015-Jan-28 04:34N 33°46' W 118°13'11962152677.8
2015-Jan-28 04:34N 29°44' W 095°16'0 0.0
2015-Jan-28 03:34N 29°44' W 095°16'1196110393.7
2015-Jan-28 03:33N 33°46' W 118°13'11961209.0
2015-Jan-28 02:34N 29°44' W 095°16'1 0.9
2015-Jan-28 01:33N 29°43' W 095°15'1197159574.7
2015-Jan-28 01:33N 33°46' W 118°13'11991211.6
2015-Jan-28 00:34N 29°44' W 095°12'1199110662.3
2015-Jan-28 00:33N 33°46' W 118°13'11991212.3
2015-Jan-27 23:34N 29°44' W 095°12'1199431583.7
2015-Jan-27 23:33N 33°46' W 118°13'0 0.0
2015-Jan-27 22:34N 33°46' W 118°13'11991195.5
2015-Jan-27 21:33N 29°44' W 095°12'1199392348.8
2015-Jan-27 21:33N 33°46' W 118°13'11991205.9
2015-Jan-27 20:34N 29°44' W 095°12'0 0.0
2015-Jan-27 19:34N 29°44' W 095°12'11991198.8
2015-Jan-27 18:34N 33°46' W 118°13'11991199.6
2015-Jan-27 17:34N 29°45' W 095°12'6 5.5
2015-Jan-27 16:34N 29°46' W 095°05'1 1.0
2015-Jan-27 15:29N 29°47' W 095°06'0 0.1
2015-Jan-27 14:33N 29°47' W 095°06'1203189.3
2015-Jan-27 08:11N 33°46' W 118°13'0 0.0
2015-Jan-27 07:33N 33°46' W 118°13'0 0.0
2015-Jan-27 06:33N 33°46' W 118°13'12046946.6
2015-Jan-27 06:22N 29°45' W 095°06'12041461.0
2015-Jan-27 05:33N 33°46' W 118°13'120446113.9
2015-Jan-27 05:31N 29°45' W 095°06'12041237.1
2015-Jan-27 04:33N 33°46' W 118°13'120415705.4
2015-Jan-27 04:28N 29°45' W 095°06'12041311.2
2015-Jan-27 03:33N 33°46' W 118°13'120438023.7
2015-Jan-27 03:31N 29°45' W 095°06'12041243.8
2015-Jan-27 02:33N 33°46' W 118°13'120438360.2
2015-Jan-27 02:31N 29°45' W 095°06'0 0.0
2015-Jan-27 01:31N 29°45' W 095°06'120434402.4
2015-Jan-27 01:29N 33°46' W 118°13'12041282.4
2015-Jan-27 00:33N 29°45' W 095°06'120472218.7
2015-Jan-27 00:32N 33°46' W 118°13'12041234.7
2015-Jan-26 23:34N 29°46' W 095°06'12044333939.0
2015-Jan-26 23:34N 33°46' W 118°13'0 0.0
2015-Jan-26 22:34N 33°46' W 118°13'1203541501.1
2015-Jan-26 22:33N 29°47' W 095°06'0 0.0
2015-Jan-26 21:33N 29°47' W 095°06'1203433200.3
2015-Jan-26 21:33N 33°46' W 118°13'12031206.7
2015-Jan-26 20:33N 29°47' W 095°06'120343319.9
2015-Jan-26 20:32N 33°46' W 118°13'12031237.3
2015-Jan-26 19:33N 29°47' W 095°06'12039437.8
2015-Jan-26 19:26N 33°46' W 118°13'12031383.6
2015-Jan-26 18:34N 29°47' W 095°06'0 0.0
2015-Jan-26 17:34N 29°47' W 095°06'120316044.3
2015-Jan-26 17:29N 33°46' W 118°13'12021295.5
2015-Jan-26 16:33N 29°44' W 095°09'120212726.2
2015-Jan-26 16:28N 33°46' W 118°13'11961324.7
2015-Jan-26 15:34N 29°44' W 095°16'11962152019.1
2015-Jan-26 15:34N 33°46' W 118°13'11951192.2
2015-Jan-26 14:33N 29°44' W 095°17'11951195.2
2015-Jan-26 13:33N 33°46' W 118°13'0 0.0
2015-Jan-26 12:33N 33°46' W 118°13'0 0.0
2015-Jan-26 11:33N 33°46' W 118°13'0 0.0
2015-Jan-26 10:30N 33°46' W 118°13'0 0.0
2015-Jan-26 09:34N 33°46' W 118°13'0 0.0
2015-Jan-26 08:33N 33°46' W 118°13'0 0.0
2015-Jan-26 07:32N 33°46' W 118°13'0 0.0
2015-Jan-26 06:33N 33°46' W 118°13'0 0.0
2015-Jan-26 05:33N 33°46' W 118°13'0 0.0
2015-Jan-26 04:33N 33°46' W 118°13'11991166.3
2015-Jan-26 03:32N 29°44' W 095°13'11994315161.9
2015-Jan-26 03:32N 33°46' W 118°13'12041221.3
2015-Jan-26 02:33N 29°45' W 095°06'120447630.3
2015-Jan-26 02:31N 33°46' W 118°13'12091258.6
2015-Jan-26 01:33N 29°42' W 095°01'120954418.5
2015-Jan-26 01:32N 33°46' W 118°13'12141242.0
2015-Jan-26 00:33N 29°36' W 094°57'1214364203.5
2015-Jan-26 00:33N 33°46' W 118°13'0 0.0
2015-Jan-25 23:33N 33°46' W 118°13'1220487976.2
2015-Jan-25 23:33N 29°30' W 094°52'7 7.0
2015-Jan-25 22:31N 29°24' W 094°49'122511051.5
2015-Jan-25 22:24N 33°46' W 118°13'0 0.0
2015-Jan-25 21:33N 33°46' W 118°13'0 0.0
2015-Jan-25 20:32N 33°46' W 118°13'0 0.0
2015-Jan-25 19:33N 33°46' W 118°13'0 0.0
2015-Jan-25 18:23N 33°46' W 118°13'0 0.0
2015-Jan-25 17:27N 33°46' W 118°13'0 0.0
2015-Jan-25 16:34N 33°46' W 118°13'0 0.0
2015-Jan-25 15:33N 33°46' W 118°13'0 0.0
2015-Jan-25 14:33N 33°46' W 118°13'0 0.0
2015-Jan-25 13:32N 33°46' W 118°13'122712766.9
2015-Jan-25 13:26N 29°19' W 094°48'12271333.3
2015-Jan-25 12:31N 33°46' W 118°13'12283670.8
2015-Jan-25 12:11N 29°19' W 094°47'12281900.1
2015-Jan-25 11:32N 33°46' W 118°13'122821250.6
2015-Jan-25 11:29N 29°20' W 094°46'12281315.1
2015-Jan-25 10:33N 33°46' W 118°13'0 0.0
2015-Jan-25 09:31N 33°46' W 118°13'0 0.0
2015-Jan-25 08:25N 33°46' W 118°13'0 0.0
2015-Jan-25 07:13N 33°46' W 118°13'0 0.0
2015-Jan-25 06:32N 33°46' W 118°13'0 0.0
2015-Jan-25 05:32N 33°46' W 118°13'0 0.0
2015-Jan-25 04:31N 33°46' W 118°13'0 0.0
2015-Jan-25 03:33N 33°46' W 118°13'0 0.0
2015-Jan-25 02:32N 33°46' W 118°13'0 0.0
2015-Jan-25 01:32N 33°46' W 118°13'0 0.0
2015-Jan-25 00:32N 33°46' W 118°13'0 0.0
2015-Jan-24 23:30N 33°46' W 118°13'0 0.0
2015-Jan-24 22:33N 33°46' W 118°13'0 0.0
2015-Jan-24 21:33N 33°46' W 118°13'0 0.0
2015-Jan-24 20:34N 33°46' W 118°13'0 0.0
2015-Jan-24 19:32N 33°46' W 118°13'0 0.0
2015-Jan-24 18:19N 33°46' W 118°13'0 0.0
2015-Jan-24 17:31N 33°46' W 118°13'0 0.0
2015-Jan-24 16:33N 33°46' W 118°13'0 0.0
2015-Jan-24 15:32N 33°46' W 118°13'0 0.0
2015-Jan-24 14:33N 33°46' W 118°13'0 0.0
2015-Jan-24 13:33N 33°46' W 118°13'0 0.0
2015-Jan-24 12:32N 33°46' W 118°13'0 0.0
2015-Jan-24 11:33N 33°46' W 118°13'0 0.0
2015-Jan-24 10:33N 33°46' W 118°13'0 0.0
2015-Jan-24 09:33N 33°46' W 118°13'0 0.0
2015-Jan-24 08:33N 33°46' W 118°13'0 0.0
2015-Jan-24 07:34N 33°46' W 118°13'0 0.0
2015-Jan-24 06:34N 33°46' W 118°13'0 0.0
2015-Jan-24 05:34N 33°46' W 118°13'0 0.0
2015-Jan-24 04:32N 33°46' W 118°13'0 0.0
2015-Jan-24 03:34N 33°46' W 118°13'0 0.0
2015-Jan-24 02:34N 33°46' W 118°13'0 0.0
2015-Jan-23 22:33N 33°46' W 118°13'0 0.0
2015-Jan-23 18:25N 33°46' W 118°13'0 0.0
2015-Jan-23 17:33N 33°46' W 118°13'0 0.0
2015-Jan-23 16:25N 33°46' W 118°13'0 0.0
2015-Jan-23 15:33N 33°46' W 118°13'0 0.0
2015-Jan-23 14:34N 33°46' W 118°13'0 0.0
2015-Jan-23 13:33N 33°46' W 118°13'0 0.0
2015-Jan-23 12:33N 33°46' W 118°13'0 0.0
2015-Jan-23 11:33N 33°46' W 118°13'0 0.0
2015-Jan-23 10:33N 33°46' W 118°13'0 0.0
2015-Jan-23 09:34N 33°46' W 118°13'0 0.0
2015-Jan-23 08:27N 33°46' W 118°13'0 0.0
2015-Jan-23 07:26N 33°46' W 118°13'0 0.0
2015-Jan-23 06:33N 33°46' W 118°13'0 0.0
2015-Jan-23 05:31N 33°46' W 118°13'0 0.0
2015-Jan-23 04:33N 33°46' W 118°13'0 0.0
2015-Jan-23 03:28N 33°46' W 118°13'0 0.0
2015-Jan-23 02:26N 33°46' W 118°13'0 0.0
2015-Jan-23 00:26N 33°46' W 118°13'0 0.0
2015-Jan-22 23:34N 33°46' W 118°13'12248443.8
2015-Jan-22 23:25N 29°24' W 094°49'7 7.8
2015-Jan-22 22:33N 29°30' W 094°52'8 7.7
2015-Jan-22 21:33N 29°37' W 094°57'121416364.4
2015-Jan-22 21:29N 33°46' W 118°13'0 0.0
2015-Jan-22 20:34N 33°46' W 118°13'12081449321.8
2015-Jan-22 20:33N 29°44' W 095°02'12081202.4
2015-Jan-22 19:33N 33°46' W 118°13'120774889.8
2015-Jan-22 19:32N 29°44' W 095°03'12071230.1
2015-Jan-22 18:33N 33°46' W 118°13'120763876.7
2015-Jan-22 18:32N 29°44' W 095°03'12071232.6
2015-Jan-22 17:34N 33°46' W 118°13'120754982.4
2015-Jan-22 17:32N 29°44' W 095°03'12071230.1
2015-Jan-22 16:33N 33°46' W 118°13'120764830.1
2015-Jan-22 16:32N 29°44' W 095°03'12071233.3
2015-Jan-22 15:34N 33°46' W 118°13'120770058.3
2015-Jan-22 15:33N 29°44' W 095°03'0 0.0
2015-Jan-22 14:34N 29°44' W 095°03'0 0.0
2015-Jan-22 13:34N 29°44' W 095°03'1207482624.0
2015-Jan-22 13:33N 33°46' W 118°13'12071209.6
2015-Jan-22 12:34N 29°44' W 095°03'0 0.0
2015-Jan-22 11:34N 29°44' W 095°03'1207434352.6
2015-Jan-22 11:33N 33°46' W 118°13'12041206.7
2015-Jan-22 10:34N 29°45' W 095°06'1204228060.7
2015-Jan-22 10:33N 33°46' W 118°13'12011208.1
2015-Jan-22 09:34N 29°44' W 095°09'12014324947.2
2015-Jan-22 09:34N 33°46' W 118°13'11951195.8
2015-Jan-22 08:34N 29°44' W 095°17'1195430359.0
2015-Jan-22 08:33N 33°46' W 118°13'11941197.0
2015-Jan-22 07:33N 29°45' W 095°17'1194537459.6
2015-Jan-22 07:33N 33°46' W 118°13'11941197.7
2015-Jan-22 06:34N 29°45' W 095°17'1194429967.7
2015-Jan-22 06:33N 33°46' W 118°13'11941197.7
2015-Jan-22 05:34N 29°45' W 095°17'  
Track history (hours):
 
Tides and Currents Weather Stations Pressure Air Temp Water Temp Dewpoint Dewpoint Depression Visibility Wind Speed Wind Dir Waves Ship Positions

Patcona II

Owner: Connolly-Pacific Co, long beach, CA. More information available from US FCC via Universal Licensing System and Coast Guard Vessel Documentation Center.

Last reported at 2015-Feb-01 05:33 UTC. Time now 2015-Feb-01 05:43 UTC.
Position N 33°46' W 118°13'.

; draft 9 m.

Type: Towing. MMSI: 366988960.

Date/timePositionNaut miles runAvg speedWind from/ knotsBaromVisibWave heightAir tempDewpointWater temp
2015-Feb-01 05:33N 33°46' W 118°13'0 0.0
2015-Feb-01 04:33N 33°46' W 118°13'0 0.0
2015-Feb-01 03:33N 33°46' W 118°13'0 0.0
2015-Feb-01 02:32N 33°46' W 118°13'0 0.0
2015-Feb-01 01:24N 33°46' W 118°13'0 0.0
2015-Feb-01 00:33N 33°46' W 118°13'0 0.0
2015-Jan-31 23:33N 33°46' W 118°13'0 0.0
2015-Jan-31 22:33N 33°46' W 118°13'0 0.0
2015-Jan-31 21:33N 33°46' W 118°13'0 0.0
2015-Jan-31 20:32N 33°46' W 118°13'0 0.0
2015-Jan-31 19:33N 33°46' W 118°13'0 0.0
2015-Jan-31 18:33N 33°46' W 118°13'0 0.0
2015-Jan-31 17:29N 33°46' W 118°13'0 0.0
2015-Jan-31 16:32N 33°46' W 118°13'0 0.0
2015-Jan-31 15:31N 33°46' W 118°13'0 0.0
2015-Jan-31 14:31N 33°46' W 118°13'0 0.0
2015-Jan-31 13:32N 33°46' W 118°13'0 0.0
2015-Jan-31 12:33N 33°46' W 118°13'0 0.0
2015-Jan-31 11:33N 33°46' W 118°13'0 0.0
2015-Jan-31 10:33N 33°46' W 118°13'0 0.0
2015-Jan-31 09:33N 33°46' W 118°13'123014236.8
2015-Jan-31 09:28N 29°21' W 094°44'12301354.8
2015-Jan-31 08:33N 33°46' W 118°13'0 0.0
2015-Jan-31 07:33N 33°46' W 118°13'0 0.0
2015-Jan-31 06:33N 33°46' W 118°13'0 0.0
2015-Jan-31 05:33N 33°46' W 118°13'0 0.0
2015-Jan-31 04:33N 33°46' W 118°13'0 0.0
2015-Jan-31 03:31N 33°46' W 118°13'0 0.0
2015-Jan-31 02:32N 33°46' W 118°13'7 3.4
2015-Jan-31 00:29N 33°39' W 118°14'14 4.9
2015-Jan-30 21:33N 33°25' W 118°16'5 4.6
2015-Jan-30 20:32N 33°20' W 118°17'1 1.2
2015-Jan-30 19:33N 33°19' W 118°18'0 0.2
2015-Jan-30 18:33N 33°19' W 118°18'0 0.2
2015-Jan-30 17:33N 33°19' W 118°18'12238337.6
2015-Jan-30 17:24N 29°22' W 094°53'12231433.0
2015-Jan-30 16:33N 33°19' W 118°18'0 0.2
2015-Jan-30 15:32N 33°19' W 118°18'1 0.7
2015-Jan-30 14:31N 33°20' W 118°18'25 6.0
2015-Jan-30 10:18N 33°45' W 118°13'1 1.7
2015-Jan-30 09:33N 33°46' W 118°13'0 0.0
2015-Jan-30 08:33N 33°46' W 118°13'0 0.0
2015-Jan-30 07:33N 33°46' W 118°13'0 0.0
2015-Jan-30 06:33N 33°46' W 118°13'0 0.0
2015-Jan-30 05:33N 33°46' W 118°13'0 0.0
2015-Jan-30 04:33N 33°46' W 118°13'0 0.0
2015-Jan-30 03:33N 33°46' W 118°13'0 0.0
2015-Jan-30 02:33N 33°46' W 118°13'0 0.0
2015-Jan-30 01:33N 33°46' W 118°13'0 0.0
2015-Jan-30 00:33N 33°46' W 118°13'0 0.0
2015-Jan-29 23:33N 33°46' W 118°13'4 2.4
2015-Jan-29 22:07N 33°44' W 118°16'0 0.0
2015-Jan-29 21:30N 33°44' W 118°16'4 3.7
2015-Jan-29 20:33N 33°46' W 118°13'0 0.0
2015-Jan-29 19:33N 33°46' W 118°13'1222600.5
2015-Jan-29 17:31N 29°22' W 094°53'1222879670.1
2015-Jan-29 17:31N 33°46' W 118°13'0 0.0
2015-Jan-29 16:33N 33°46' W 118°13'0 0.0
2015-Jan-29 15:33N 33°46' W 118°13'12229087.5
2015-Jan-29 15:25N 29°22' W 094°53'12221394.5
2015-Jan-29 14:33N 33°46' W 118°13'12226142.9
2015-Jan-29 14:21N 29°22' W 094°53'12221546.5
2015-Jan-29 13:34N 33°46' W 118°13'0 0.0
2015-Jan-29 12:33N 33°46' W 118°13'0 0.0
2015-Jan-29 11:33N 33°46' W 118°13'0 0.0
2015-Jan-29 10:33N 33°46' W 118°13'0 0.0
2015-Jan-29 09:33N 33°46' W 118°13'0 0.0
2015-Jan-29 08:34N 33°46' W 118°13'0 0.0
2015-Jan-29 07:33N 33°46' W 118°13'12252764.3
2015-Jan-29 07:07N 29°22' W 094°50'12252187.0
2015-Jan-29 06:33N 33°46' W 118°13'12288786.9
2015-Jan-29 06:25N 29°19' W 094°47'12281423.4
2015-Jan-29 05:33N 33°46' W 118°13'12283237.8
2015-Jan-29 05:10N 29°19' W 094°47'12281967.7
2015-Jan-29 04:33N 33°46' W 118°13'1228315680.8
2015-Jan-29 04:33N 29°19' W 094°47'12281225.6
2015-Jan-29 03:33N 33°46' W 118°13'122869055.2
2015-Jan-29 03:32N 29°19' W 094°47'12281268.2
2015-Jan-29 02:34N 33°46' W 118°13'12272460.4
2015-Jan-29 02:04N 29°21' W 094°47'12272433.3
2015-Jan-29 01:33N 33°46' W 118°13'122458741.1
2015-Jan-29 01:32N 29°25' W 094°50'7 7.2
2015-Jan-29 00:33N 29°31' W 094°53'8 7.7
2015-Jan-28 23:33N 29°38' W 094°58'12131455482.1
2015-Jan-28 23:33N 33°46' W 118°13'12071208.3
2015-Jan-28 22:33N 29°44' W 095°02'120741791.6
2015-Jan-28 22:32N 33°46' W 118°13'12011237.0
2015-Jan-28 21:33N 29°44' W 095°09'12014947.8
2015-Jan-28 21:19N 33°46' W 118°13'11981584.0
2015-Jan-28 20:33N 29°43' W 095°14'11987472.7
2015-Jan-28 20:24N 33°46' W 118°13'11981398.0
2015-Jan-28 19:32N 29°43' W 095°14'11985771.8
2015-Jan-28 19:20N 33°46' W 118°13'11981512.3
2015-Jan-28 18:33N 29°43' W 095°14'11983959.2
2015-Jan-28 18:14N 33°46' W 118°13'11981713.7
2015-Jan-28 17:32N 29°43' W 095°14'11986212.6
2015-Jan-28 17:21N 33°46' W 118°13'11981483.7
2015-Jan-28 16:32N 29°43' W 095°14'119821032.0
2015-Jan-28 16:29N 33°46' W 118°13'0 0.0
2015-Jan-28 15:34N 33°46' W 118°13'119927312.1
2015-Jan-28 15:31N 29°44' W 095°13'1 1.2
2015-Jan-28 14:33N 29°43' W 095°14'11981166.9
2015-Jan-28 13:32N 33°46' W 118°13'119853894.4
2015-Jan-28 13:31N 29°43' W 095°14'11981260.3
2015-Jan-28 12:34N 33°46' W 118°13'1198862310.5
2015-Jan-28 12:33N 29°43' W 095°14'0 0.0
2015-Jan-28 11:33N 29°43' W 095°14'1198187458.8
2015-Jan-28 11:33N 33°46' W 118°13'0 0.0
2015-Jan-28 10:34N 33°46' W 118°13'11982155776.2
2015-Jan-28 10:33N 29°43' W 095°14'0 0.0
2015-Jan-28 09:33N 29°43' W 095°14'11981437184.1
2015-Jan-28 09:33N 33°46' W 118°13'0 0.0
2015-Jan-28 08:34N 33°46' W 118°13'1197718484.8
2015-Jan-28 08:33N 29°43' W 095°14'11971185.9
2015-Jan-28 07:33N 33°46' W 118°13'119639498.7
2015-Jan-28 07:31N 29°44' W 095°16'11961223.1
2015-Jan-28 06:32N 33°46' W 118°13'119653816.9
2015-Jan-28 06:31N 29°44' W 095°16'0 0.0
2015-Jan-28 05:31N 29°44' W 095°16'11961248.3
2015-Jan-28 04:34N 33°46' W 118°13'11962152677.8
2015-Jan-28 04:34N 29°44' W 095°16'0 0.0
2015-Jan-28 03:34N 29°44' W 095°16'1196110393.7
2015-Jan-28 03:33N 33°46' W 118°13'11961209.0
2015-Jan-28 02:34N 29°44' W 095°16'1 0.9
2015-Jan-28 01:33N 29°43' W 095°15'1197159574.7
2015-Jan-28 01:33N 33°46' W 118°13'11991211.6
2015-Jan-28 00:34N 29°44' W 095°12'1199110662.3
2015-Jan-28 00:33N 33°46' W 118°13'11991212.3
2015-Jan-27 23:34N 29°44' W 095°12'1199431583.7
2015-Jan-27 23:33N 33°46' W 118°13'0 0.0
2015-Jan-27 22:34N 33°46' W 118°13'11991195.5
2015-Jan-27 21:33N 29°44' W 095°12'1199392348.8
2015-Jan-27 21:33N 33°46' W 118°13'11991205.9
2015-Jan-27 20:34N 29°44' W 095°12'0 0.0
2015-Jan-27 19:34N 29°44' W 095°12'11991198.8
2015-Jan-27 18:34N 33°46' W 118°13'11991199.6
2015-Jan-27 17:34N 29°45' W 095°12'6 5.5
2015-Jan-27 16:34N 29°46' W 095°05'1 1.0
2015-Jan-27 15:29N 29°47' W 095°06'0 0.1
2015-Jan-27 14:33N 29°47' W 095°06'1203189.3
2015-Jan-27 08:11N 33°46' W 118°13'0 0.0
2015-Jan-27 07:33N 33°46' W 118°13'0 0.0
2015-Jan-27 06:33N 33°46' W 118°13'12046946.6
2015-Jan-27 06:22N 29°45' W 095°06'12041461.0
2015-Jan-27 05:33N 33°46' W 118°13'120446113.9
2015-Jan-27 05:31N 29°45' W 095°06'12041237.1
2015-Jan-27 04:33N 33°46' W 118°13'120415705.4
2015-Jan-27 04:28N 29°45' W 095°06'12041311.2
2015-Jan-27 03:33N 33°46' W 118°13'120438023.7
2015-Jan-27 03:31N 29°45' W 095°06'12041243.8
2015-Jan-27 02:33N 33°46' W 118°13'120438360.2
2015-Jan-27 02:31N 29°45' W 095°06'0 0.0
2015-Jan-27 01:31N 29°45' W 095°06'120434402.4
2015-Jan-27 01:29N 33°46' W 118°13'12041282.4
2015-Jan-27 00:33N 29°45' W 095°06'120472218.7
2015-Jan-27 00:32N 33°46' W 118°13'12041234.7
2015-Jan-26 23:34N 29°46' W 095°06'12044333939.0
2015-Jan-26 23:34N 33°46' W 118°13'0 0.0
2015-Jan-26 22:34N 33°46' W 118°13'1203541501.1
2015-Jan-26 22:33N 29°47' W 095°06'0 0.0
2015-Jan-26 21:33N 29°47' W 095°06'1203433200.3
2015-Jan-26 21:33N 33°46' W 118°13'12031206.7
2015-Jan-26 20:33N 29°47' W 095°06'120343319.9
2015-Jan-26 20:32N 33°46' W 118°13'12031237.3
2015-Jan-26 19:33N 29°47' W 095°06'12039437.8
2015-Jan-26 19:26N 33°46' W 118°13'12031383.6
2015-Jan-26 18:34N 29°47' W 095°06'0 0.0
2015-Jan-26 17:34N 29°47' W 095°06'120316044.3
2015-Jan-26 17:29N 33°46' W 118°13'12021295.5
2015-Jan-26 16:33N 29°44' W 095°09'120212726.2
2015-Jan-26 16:28N 33°46' W 118°13'11961324.7
2015-Jan-26 15:34N 29°44' W 095°16'11962152019.1
2015-Jan-26 15:34N 33°46' W 118°13'11951192.2
2015-Jan-26 14:33N 29°44' W 095°17'11951195.2
2015-Jan-26 13:33N 33°46' W 118°13'0 0.0
2015-Jan-26 12:33N 33°46' W 118°13'0 0.0
2015-Jan-26 11:33N 33°46' W 118°13'0 0.0
2015-Jan-26 10:30N 33°46' W 118°13'0 0.0
2015-Jan-26 09:34N 33°46' W 118°13'0 0.0
2015-Jan-26 08:33N 33°46' W 118°13'0 0.0
2015-Jan-26 07:32N 33°46' W 118°13'0 0.0
2015-Jan-26 06:33N 33°46' W 118°13'0 0.0
2015-Jan-26 05:33N 33°46' W 118°13'0 0.0
2015-Jan-26 04:33N 33°46' W 118°13'11991166.3
2015-Jan-26 03:32N 29°44' W 095°13'11994315161.9
2015-Jan-26 03:32N 33°46' W 118°13'12041221.3
2015-Jan-26 02:33N 29°45' W 095°06'120447630.3
2015-Jan-26 02:31N 33°46' W 118°13'12091258.6
2015-Jan-26 01:33N 29°42' W 095°01'120954418.5
2015-Jan-26 01:32N 33°46' W 118°13'12141242.0
2015-Jan-26 00:33N 29°36' W 094°57'1214364203.5
2015-Jan-26 00:33N 33°46' W 118°13'0 0.0
2015-Jan-25 23:33N 33°46' W 118°13'1220487976.2
2015-Jan-25 23:33N 29°30' W 094°52'7 7.0
2015-Jan-25 22:31N 29°24' W 094°49'122511051.5
2015-Jan-25 22:24N 33°46' W 118°13'0 0.0
2015-Jan-25 21:33N 33°46' W 118°13'0 0.0
2015-Jan-25 20:32N 33°46' W 118°13'0 0.0
2015-Jan-25 19:33N 33°46' W 118°13'0 0.0
2015-Jan-25 18:23N 33°46' W 118°13'0 0.0
2015-Jan-25 17:27N 33°46' W 118°13'0 0.0
2015-Jan-25 16:34N 33°46' W 118°13'0 0.0
2015-Jan-25 15:33N 33°46' W 118°13'0 0.0
2015-Jan-25 14:33N 33°46' W 118°13'0 0.0
2015-Jan-25 13:32N 33°46' W 118°13'122712766.9
2015-Jan-25 13:26N 29°19' W 094°48'12271333.3
2015-Jan-25 12:31N 33°46' W 118°13'12283670.8
2015-Jan-25 12:11N 29°19' W 094°47'12281900.1
2015-Jan-25 11:32N 33°46' W 118°13'122821250.6
2015-Jan-25 11:29N 29°20' W 094°46'12281315.1
2015-Jan-25 10:33N 33°46' W 118°13'0 0.0
2015-Jan-25 09:31N 33°46' W 118°13'0 0.0
2015-Jan-25 08:25N 33°46' W 118°13'0 0.0
2015-Jan-25 07:13N 33°46' W 118°13'0 0.0
2015-Jan-25 06:32N 33°46' W 118°13'0 0.0
2015-Jan-25 05:32N 33°46' W 118°13'0 0.0
2015-Jan-25 04:31N 33°46' W 118°13'0 0.0
2015-Jan-25 03:33N 33°46' W 118°13'0 0.0
2015-Jan-25 02:32N 33°46' W 118°13'0 0.0
2015-Jan-25 01:32N 33°46' W 118°13'0 0.0
2015-Jan-25 00:32N 33°46' W 118°13'0 0.0
2015-Jan-24 23:30N 33°46' W 118°13'0 0.0
2015-Jan-24 22:33N 33°46' W 118°13'0 0.0
2015-Jan-24 21:33N 33°46' W 118°13'0 0.0
2015-Jan-24 20:34N 33°46' W 118°13'0 0.0
2015-Jan-24 19:32N 33°46' W 118°13'0 0.0
2015-Jan-24 18:19N 33°46' W 118°13'0 0.0
2015-Jan-24 17:31N 33°46' W 118°13'0 0.0
2015-Jan-24 16:33N 33°46' W 118°13'0 0.0
2015-Jan-24 15:32N 33°46' W 118°13'0 0.0
2015-Jan-24 14:33N 33°46' W 118°13'0 0.0
2015-Jan-24 13:33N 33°46' W 118°13'0 0.0
2015-Jan-24 12:32N 33°46' W 118°13'0 0.0
2015-Jan-24 11:33N 33°46' W 118°13'0 0.0
2015-Jan-24 10:33N 33°46' W 118°13'0 0.0
2015-Jan-24 09:33N 33°46' W 118°13'0 0.0
2015-Jan-24 08:33N 33°46' W 118°13'0 0.0
2015-Jan-24 07:34N 33°46' W 118°13'0 0.0
2015-Jan-24 06:34N 33°46' W 118°13'0 0.0
2015-Jan-24 05:34N 33°46' W 118°13'0 0.0
2015-Jan-24 04:32N 33°46' W 118°13'0 0.0
2015-Jan-24 03:34N 33°46' W 118°13'0 0.0
2015-Jan-24 02:34N 33°46' W 118°13'0 0.0
2015-Jan-23 22:33N 33°46' W 118°13'0 0.0
2015-Jan-23 18:25N 33°46' W 118°13'0 0.0
2015-Jan-23 17:33N 33°46' W 118°13'0 0.0
2015-Jan-23 16:25N 33°46' W 118°13'0 0.0
2015-Jan-23 15:33N 33°46' W 118°13'0 0.0
2015-Jan-23 14:34N 33°46' W 118°13'0 0.0
2015-Jan-23 13:33N 33°46' W 118°13'0 0.0
2015-Jan-23 12:33N 33°46' W 118°13'0 0.0
2015-Jan-23 11:33N 33°46' W 118°13'0 0.0
2015-Jan-23 10:33N 33°46' W 118°13'0 0.0
2015-Jan-23 09:34N 33°46' W 118°13'0 0.0
2015-Jan-23 08:27N 33°46' W 118°13'0 0.0
2015-Jan-23 07:26N 33°46' W 118°13'0 0.0
2015-Jan-23 06:33N 33°46' W 118°13'0 0.0
2015-Jan-23 05:31N 33°46' W 118°13'0 0.0
2015-Jan-23 04:33N 33°46' W 118°13'0 0.0
2015-Jan-23 03:28N 33°46' W 118°13'0 0.0
2015-Jan-23 02:26N 33°46' W 118°13'0 0.0
2015-Jan-23 00:26N 33°46' W 118°13'0 0.0
2015-Jan-22 23:34N 33°46' W 118°13'12248443.8
2015-Jan-22 23:25N 29°24' W 094°49'7 7.8
2015-Jan-22 22:33N 29°30' W 094°52'8 7.7
2015-Jan-22 21:33N 29°37' W 094°57'121416364.4
2015-Jan-22 21:29N 33°46' W 118°13'0 0.0
2015-Jan-22 20:34N 33°46' W 118°13'12081449321.8
2015-Jan-22 20:33N 29°44' W 095°02'12081202.4
2015-Jan-22 19:33N 33°46' W 118°13'120774889.8
2015-Jan-22 19:32N 29°44' W 095°03'12071230.1
2015-Jan-22 18:33N 33°46' W 118°13'120763876.7
2015-Jan-22 18:32N 29°44' W 095°03'12071232.6
2015-Jan-22 17:34N 33°46' W 118°13'120754982.4
2015-Jan-22 17:32N 29°44' W 095°03'12071230.1
2015-Jan-22 16:33N 33°46' W 118°13'120764830.1
2015-Jan-22 16:32N 29°44' W 095°03'12071233.3
2015-Jan-22 15:34N 33°46' W 118°13'120770058.3
2015-Jan-22 15:33N 29°44' W 095°03'0 0.0
2015-Jan-22 14:34N 29°44' W 095°03'0 0.0
2015-Jan-22 13:34N 29°44' W 095°03'1207482624.0
2015-Jan-22 13:33N 33°46' W 118°13'12071209.6
2015-Jan-22 12:34N 29°44' W 095°03'0 0.0
2015-Jan-22 11:34N 29°44' W 095°03'1207434352.6
2015-Jan-22 11:33N 33°46' W 118°13'12041206.7
2015-Jan-22 10:34N 29°45' W 095°06'1204228060.7
2015-Jan-22 10:33N 33°46' W 118°13'12011208.1
2015-Jan-22 09:34N 29°44' W 095°09'12014324947.2
2015-Jan-22 09:34N 33°46' W 118°13'11951195.8
2015-Jan-22 08:34N 29°44' W 095°17'1195430359.0
2015-Jan-22 08:33N 33°46' W 118°13'11941197.0
2015-Jan-22 07:33N 29°45' W 095°17'1194537459.6
2015-Jan-22 07:33N 33°46' W 118°13'11941197.7
2015-Jan-22 06:34N 29°45' W 095°17'1194429967.7
2015-Jan-22 06:33N 33°46' W 118°13'11941197.7
2015-Jan-22 05:34N 29°45' W 095°17'  

Dump ship's entire track history